Time,TemperatureF,DewpointF,PressureIn,WindDirection,WindDirectionDegrees,WindSpeedMPH,WindSpeedGustMPH,Humidity,HourlyPrecipIn,Conditions,Clouds,dailyrainin,SolarRadiationWatts/m^2,SoftwareType,DateUTC
2013-06-17 00:02:00,69.8,65.0,29.88,WSW,255,3.0,-999.0,84,-99.99,,,0.00,0,weatherlink.com 1.10,2013-06-17 05:02:00,
2013-06-17 00:17:00,69.8,65.0,29.88,West,263,4.0,-999.0,84,-99.99,,,0.00,0,weatherlink.com 1.10,2013-06-17 05:17:00,
2013-06-17 00:32:00,69.6,65.0,29.87,West,263,5.0,-999.0,84,-99.99,,,0.00,0,weatherlink.com 1.10,2013-06-17 05:32:00,
2013-06-17 00:47:00,68.8,64.0,29.87,WSW,252,5.0,-999.0,84,-99.99,,,0.00,0,weatherlink.com 1.10,2013-06-17 05:47:00,
2013-06-17 01:02:00,68.1,64.0,29.86,WSW,248,4.0,-999.0,86,-99.99,,,0.00,0,weatherlink.com 1.10,2013-06-17 06:02:00,
2013-06-17 01:17:00,67.4,63.0,29.86,WSW,246,5.0,-999.0,86,-99.99,,,0.00,0,weatherlink.com 1.10,2013-06-17 06:17:00,
2013-06-17 01:32:00,66.9,63.0,29.86,WSW,243,5.0,-999.0,88,-99.99,,,0.00,0,weatherlink.com 1.10,2013-06-17 06:32:00,
2013-06-17 01:47:00,66.9,63.0,29.86,WSW,243,4.0,-999.0,88,-99.99,,,0.00,0,weatherlink.com 1.10,2013-06-17 06:47:00,
2013-06-17 02:02:00,65.8,62.0,29.86,WSW,243,4.0,-999.0,88,-99.99,,,0.00,0,weatherlink.com 1.10,2013-06-17 07:02:00,
2013-06-17 02:17:00,65.6,63.0,29.86,WSW,244,4.0,-999.0,90,-99.99,,,0.00,0,weatherlink.com 1.10,2013-06-17 07:17:00,
2013-06-17 02:32:00,65.8,63.0,29.86,WSW,244,3.0,-999.0,90,-99.99,,,0.00,0,weatherlink.com 1.10,2013-06-17 07:32:00,
2013-06-17 02:47:00,65.8,63.0,29.85,WSW,244,2.0,-999.0,90,-99.99,,,0.00,0,weatherlink.com 1.10,2013-06-17 07:47:00,
2013-06-17 03:02:00,65.0,62.0,29.85,WSW,244,3.0,-999.0,89,-99.99,,,0.00,0,weatherlink.com 1.10,2013-06-17 08:02:00,
2013-06-17 03:17:00,64.7,62.0,29.86,WSW,244,4.0,-999.0,90,-99.99,,,0.00,0,weatherlink.com 1.10,2013-06-17 08:17:00,
2013-06-17 03:32:00,64.7,62.0,29.86,WSW,244,3.0,-999.0,90,-99.99,,,0.00,0,weatherlink.com 1.10,2013-06-17 08:32:00,
2013-06-17 03:47:00,64.5,62.0,29.85,WSW,244,3.0,-999.0,91,-99.99,,,0.00,0,weatherlink.com 1.10,2013-06-17 08:47:00,
2013-06-17 04:02:00,63.5,61.0,29.84,WSW,244,3.0,-999.0,91,-99.99,,,0.00,0,weatherlink.com 1.10,2013-06-17 09:02:00,
2013-06-17 04:17:00,62.7,60.0,29.84,WSW,244,5.0,-999.0,91,-99.99,,,0.00,0,weatherlink.com 1.10,2013-06-17 09:17:00,
2013-06-17 04:33:00,62.6,60.0,29.84,SW,225,3.0,-999.0,92,-99.99,,,0.00,0,weatherlink.com 1.10,2013-06-17 09:33:00,
2013-06-17 04:48:00,62.4,60.0,29.84,SSW,211,6.0,-999.0,92,-99.99,,,0.00,0,weatherlink.com 1.10,2013-06-17 09:48:00,
2013-06-17 05:03:00,62.3,60.0,29.84,SSW,212,6.0,-999.0,93,-99.99,,,0.00,0,weatherlink.com 1.10,2013-06-17 10:03:00,
2013-06-17 05:18:00,62.7,61.0,29.85,SW,233,4.0,-999.0,94,-99.99,,,0.00,0,weatherlink.com 1.10,2013-06-17 10:18:00,
2013-06-17 05:33:00,62.6,61.0,29.85,SW,236,6.0,-999.0,93,-99.99,,,0.00,9,weatherlink.com 1.10,2013-06-17 10:33:00,
2013-06-17 05:48:00,62.9,61.0,29.85,WSW,238,4.0,-999.0,94,-99.99,,,0.00,16,weatherlink.com 1.10,2013-06-17 10:48:00,
2013-06-17 06:03:00,63.5,62.0,29.86,SW,217,4.0,-999.0,94,-99.99,,,0.00,46,weatherlink.com 1.10,2013-06-17 11:03:00,
2013-06-17 06:18:00,64.5,63.0,29.86,SW,224,6.0,-999.0,94,-99.99,,,0.00,76,weatherlink.com 1.10,2013-06-17 11:18:00,
2013-06-17 06:33:00,65.8,64.0,29.86,SSW,211,7.0,-999.0,94,-99.99,,,0.00,111,weatherlink.com 1.10,2013-06-17 11:33:00,
2013-06-17 06:48:00,66.9,65.0,29.86,SW,224,7.0,-999.0,94,-99.99,,,0.00,155,weatherlink.com 1.10,2013-06-17 11:48:00,
2013-06-17 07:03:00,68.4,66.0,29.86,SW,230,6.0,-999.0,93,-99.99,,,0.00,209,weatherlink.com 1.10,2013-06-17 12:03:00,
2013-06-17 07:18:00,69.9,67.0,29.86,WSW,257,10.0,-999.0,91,-99.99,,,0.00,246,weatherlink.com 1.10,2013-06-17 12:18:00,
2013-06-17 07:33:00,71.1,67.0,29.87,WSW,246,7.0,-999.0,87,-99.99,,,0.00,269,weatherlink.com 1.10,2013-06-17 12:33:00,
2013-06-17 07:48:00,72.5,67.0,29.87,WSW,252,7.0,-999.0,83,-99.99,,,0.00,345,weatherlink.com 1.10,2013-06-17 12:48:00,
2013-06-17 08:03:00,74.0,68.0,29.87,WSW,249,9.0,-999.0,80,-99.99,,,0.00,362,weatherlink.com 1.10,2013-06-17 13:03:00,
2013-06-17 08:18:00,75.3,66.0,29.88,West,261,7.0,-999.0,73,-99.99,,,0.00,399,weatherlink.com 1.10,2013-06-17 13:18:00,
2013-06-17 08:33:00,76.7,66.0,29.87,West,269,6.0,-999.0,70,-99.99,,,0.00,462,weatherlink.com 1.10,2013-06-17 13:33:00,
2013-06-17 08:48:00,78.1,64.0,29.87,WNW,294,4.0,-999.0,63,-99.99,,,0.00,496,weatherlink.com 1.10,2013-06-17 13:48:00,
2013-06-17 09:03:00,79.6,63.0,29.87,NW,306,3.0,-999.0,57,-99.99,,,0.00,543,weatherlink.com 1.10,2013-06-17 14:03:00,
2013-06-17 09:18:00,81.1,63.0,29.87,WNW,293,0.0,-999.0,55,-99.99,,,0.00,631,weatherlink.com 1.10,2013-06-17 14:18:00,
2013-06-17 09:33:00,82.2,64.0,29.86,WNW,294,3.0,-999.0,55,-99.99,,,0.00,615,weatherlink.com 1.10,2013-06-17 14:33:00,
2013-06-17 09:49:00,84.0,63.0,29.85,WNW,295,0.0,-999.0,49,-99.99,,,0.00,605,weatherlink.com 1.10,2013-06-17 14:49:00,
2013-06-17 10:04:00,84.3,62.0,29.85,WNW,296,3.0,-999.0,47,-99.99,,,0.00,638,weatherlink.com 1.10,2013-06-17 15:04:00,
2013-06-17 10:19:00,84.7,63.0,29.85,WNW,299,0.0,-999.0,48,-99.99,,,0.00,624,weatherlink.com 1.10,2013-06-17 15:19:00,
2013-06-17 10:34:00,84.9,61.0,29.85,NW,304,5.0,-999.0,44,-99.99,,,0.00,582,weatherlink.com 1.10,2013-06-17 15:34:00,
2013-06-17 10:49:00,85.1,59.0,29.86,NW,323,4.0,-999.0,42,-99.99,,,0.00,461,weatherlink.com 1.10,2013-06-17 15:49:00,
2013-06-17 11:04:00,84.3,58.0,29.86,NW,308,4.0,-999.0,41,-99.99,,,0.00,515,weatherlink.com 1.10,2013-06-17 16:04:00,
2013-06-17 11:19:00,84.3,57.0,29.86,NW,310,2.0,-999.0,40,-99.99,,,0.00,519,weatherlink.com 1.10,2013-06-17 16:19:00,
2013-06-17 11:34:00,84.5,58.0,29.86,NW,325,4.0,-999.0,41,-99.99,,,0.00,596,weatherlink.com 1.10,2013-06-17 16:34:00,
2013-06-17 11:49:00,85.1,59.0,29.86,NW,313,3.0,-999.0,41,-99.99,,,0.00,670,weatherlink.com 1.10,2013-06-17 16:49:00,
2013-06-17 12:19:00,85.9,57.0,29.87,WNW,293,10.0,-999.0,38,-99.99,,,0.00,752,weatherlink.com 1.10,2013-06-17 17:19:00,
2013-06-17 12:34:00,86.5,56.0,29.87,West,281,10.0,-999.0,35,-99.99,,,0.00,756,weatherlink.com 1.10,2013-06-17 17:34:00,
2013-06-17 12:49:00,87.6,58.0,29.87,WNW,291,9.0,-999.0,37,-99.99,,,0.00,877,weatherlink.com 1.10,2013-06-17 17:49:00,
2013-06-17 13:04:00,87.4,59.0,29.87,NW,309,7.0,-999.0,38,-99.99,,,0.00,842,weatherlink.com 1.10,2013-06-17 18:04:00,
2013-06-17 13:19:00,87.8,57.0,29.86,WNW,297,4.0,-999.0,35,-99.99,,,0.00,884,weatherlink.com 1.10,2013-06-17 18:19:00,
2013-06-17 13:34:00,88.0,55.0,29.86,WNW,289,14.0,-999.0,33,-99.99,,,0.00,900,weatherlink.com 1.10,2013-06-17 18:34:00,
2013-06-17 13:49:00,88.6,56.0,29.86,WNW,299,6.0,-999.0,33,-99.99,,,0.00,817,weatherlink.com 1.10,2013-06-17 18:49:00,
2013-06-17 14:04:00,89.0,56.0,29.86,WNW,295,3.0,-999.0,33,-99.99,,,0.00,814,weatherlink.com 1.10,2013-06-17 19:04:00,
2013-06-17 14:19:00,88.8,54.0,29.85,WNW,291,7.0,-999.0,31,-99.99,,,0.00,844,weatherlink.com 1.10,2013-06-17 19:19:00,
2013-06-17 14:34:00,89.0,55.0,29.84,NW,304,9.0,-999.0,31,-99.99,,,0.00,823,weatherlink.com 1.10,2013-06-17 19:34:00,
2013-06-17 14:49:00,89.7,56.0,29.84,WNW,288,5.0,-999.0,32,-99.99,,,0.00,898,weatherlink.com 1.10,2013-06-17 19:49:00,
2013-06-17 15:04:00,90.1,53.0,29.84,WNW,296,12.0,-999.0,28,-99.99,,,0.00,861,weatherlink.com 1.10,2013-06-17 20:04:00,
2013-06-17 15:19:00,89.7,54.0,29.83,West,279,5.0,-999.0,30,-99.99,,,0.00,805,weatherlink.com 1.10,2013-06-17 20:19:00,
2013-06-17 15:34:00,89.5,55.0,29.82,WSW,257,6.0,-999.0,31,-99.99,,,0.00,740,weatherlink.com 1.10,2013-06-17 20:34:00,
2013-06-17 15:49:00,89.0,50.0,29.82,West,273,11.0,-999.0,26,-99.99,,,0.00,719,weatherlink.com 1.10,2013-06-17 20:49:00,
2013-06-17 16:04:00,89.3,51.0,29.81,WNW,297,12.0,-999.0,27,-99.99,,,0.00,656,weatherlink.com 1.10,2013-06-17 21:04:00,
2013-06-17 16:19:00,88.6,51.0,29.81,West,273,14.0,-999.0,27,-99.99,,,0.00,640,weatherlink.com 1.10,2013-06-17 21:19:00,
2013-06-17 16:34:00,88.4,53.0,29.81,West,271,12.0,-999.0,30,-99.99,,,0.00,547,weatherlink.com 1.10,2013-06-17 21:34:00,
2013-06-17 16:49:00,88.6,53.0,29.80,WNW,282,11.0,-999.0,29,-99.99,,,0.00,287,weatherlink.com 1.10,2013-06-17 21:49:00,
2013-06-17 17:04:00,88.2,54.0,29.80,WNW,299,9.0,-999.0,31,-99.99,,,0.00,548,weatherlink.com 1.10,2013-06-17 22:04:00,
2013-06-17 17:19:00,88.0,55.0,29.80,West,267,10.0,-999.0,33,-99.99,,,0.00,399,weatherlink.com 1.10,2013-06-17 22:19:00,
2013-06-17 17:34:00,87.2,57.0,29.80,West,275,7.0,-999.0,36,-99.99,,,0.00,383,weatherlink.com 1.10,2013-06-17 22:34:00,
2013-06-17 17:49:00,86.1,56.0,29.79,WSW,240,10.0,-999.0,36,-99.99,,,0.00,172,weatherlink.com 1.10,2013-06-17 22:49:00,
2013-06-17 18:04:00,84.7,56.0,29.80,WSW,249,6.0,-999.0,38,-99.99,,,0.00,227,weatherlink.com 1.10,2013-06-17 23:04:00,
2013-06-17 18:19:00,85.1,57.0,29.79,West,263,6.0,-999.0,38,-99.99,,,0.00,167,weatherlink.com 1.10,2013-06-17 23:19:00,
2013-06-17 18:34:00,84.3,58.0,29.79,WSW,249,4.0,-999.0,41,-99.99,,,0.00,111,weatherlink.com 1.10,2013-06-17 23:34:00,
2013-06-17 18:49:00,84.5,58.0,29.79,WSW,242,5.0,-999.0,41,-99.99,,,0.00,258,weatherlink.com 1.10,2013-06-17 23:49:00,
2013-06-17 19:04:00,85.3,59.0,29.79,WSW,246,6.0,-999.0,41,-99.99,,,0.00,144,weatherlink.com 1.10,2013-06-18 00:04:00,
2013-06-17 19:19:00,83.8,58.0,29.79,SW,227,9.0,-999.0,42,-99.99,,,0.00,70,weatherlink.com 1.10,2013-06-18 00:19:00,
2013-06-17 19:34:00,82.2,59.0,29.79,SW,224,6.0,-999.0,45,-99.99,,,0.00,69,weatherlink.com 1.10,2013-06-18 00:34:00,
2013-06-17 19:49:00,81.6,60.0,29.79,SW,229,5.0,-999.0,48,-99.99,,,0.00,40,weatherlink.com 1.10,2013-06-18 00:49:00,
2013-06-17 20:04:00,81.1,60.0,29.80,SW,234,6.0,-999.0,48,-99.99,,,0.00,21,weatherlink.com 1.10,2013-06-18 01:04:00,
2013-06-17 20:19:00,80.3,60.0,29.80,SW,225,6.0,-999.0,50,-99.99,,,0.00,12,weatherlink.com 1.10,2013-06-18 01:19:00,
2013-06-17 20:34:00,79.4,60.0,29.80,SSW,213,9.0,-999.0,52,-99.99,,,0.00,5,weatherlink.com 1.10,2013-06-18 01:34:00,
2013-06-17 20:49:00,79.0,63.0,29.80,SSW,213,13.0,-999.0,58,-99.99,,,0.00,0,weatherlink.com 1.10,2013-06-18 01:49:00,
2013-06-17 21:04:00,78.3,64.0,29.80,SW,223,13.0,-999.0,62,-99.99,,,0.00,0,weatherlink.com 1.10,2013-06-18 02:04:00,
2013-06-17 21:19:00,77.4,65.0,29.80,SW,226,14.0,-999.0,65,-99.99,,,0.00,0,weatherlink.com 1.10,2013-06-18 02:19:00,
2013-06-17 21:34:00,76.3,65.0,29.80,SW,223,10.0,-999.0,67,-99.99,,,0.00,0,weatherlink.com 1.10,2013-06-18 02:34:00,
2013-06-17 21:49:00,75.3,65.0,29.81,SW,228,9.0,-999.0,70,-99.99,,,0.00,0,weatherlink.com 1.10,2013-06-18 02:49:00,
2013-06-17 22:04:00,74.9,65.0,29.81,WSW,240,7.0,-999.0,71,-99.99,,,0.00,0,weatherlink.com 1.10,2013-06-18 03:04:00,
2013-06-17 22:19:00,75.3,64.0,29.82,WSW,252,6.0,-999.0,69,-99.99,,,0.00,0,weatherlink.com 1.10,2013-06-18 03:19:00,
2013-06-17 22:34:00,75.8,64.0,29.82,WSW,249,7.0,-999.0,67,-99.99,,,0.00,0,weatherlink.com 1.10,2013-06-18 03:34:00,
2013-06-17 22:49:00,75.6,64.0,29.81,West,261,7.0,-999.0,67,-99.99,,,0.00,0,weatherlink.com 1.10,2013-06-18 03:49:00,
2013-06-17 23:04:00,74.9,64.0,29.81,West,267,4.0,-999.0,69,-99.99,,,0.00,0,weatherlink.com 1.10,2013-06-18 04:04:00,
2013-06-17 23:19:00,73.9,64.0,29.82,West,272,2.0,-999.0,71,-99.99,,,0.00,0,weatherlink.com 1.10,2013-06-18 04:19:00,
2013-06-17 23:34:00,73.3,64.0,29.81,West,272,3.0,-999.0,73,-99.99,,,0.00,0,weatherlink.com 1.10,2013-06-18 04:34:00,
2013-06-17 23:49:00,72.8,64.0,29.81,West,272,4.0,-999.0,74,-99.99,,,0.00,0,weatherlink.com 1.10,2013-06-18 04:49:00,